sensor_id;sensor_type;location;lat;lon;timestamp;pressure;altitude;pressure_sealevel;temperature;humidity
12349;BME280;5974;42.710;27.258;2024-03-23T00:53:35;100388.25;;;-0.07;100.00
12349;BME280;5974;42.710;27.258;2024-03-23T00:56:02;100390.09;;;0.14;100.00
12349;BME280;5974;42.710;27.258;2024-03-23T00:58:28;100384.00;;;-0.04;100.00
12349;BME280;5974;42.710;27.258;2024-03-23T01:00:55;100380.56;;;-0.03;100.00
12349;BME280;5974;42.710;27.258;2024-03-23T01:03:21;100383.97;;;-0.05;100.00
12349;BME280;5974;42.710;27.258;2024-03-23T01:05:48;100376.28;;;-0.04;100.00
12349;BME280;5974;42.710;27.258;2024-03-23T01:08:15;100373.69;;;-0.05;100.00
12349;BME280;5974;42.710;27.258;2024-03-23T01:10:42;100375.41;;;-0.06;100.00
12349;BME280;5974;42.710;27.258;2024-03-23T01:13:07;100373.69;;;-0.10;100.00
12349;BME280;5974;42.710;27.258;2024-03-23T01:15:35;100372.84;;;-0.03;100.00
12349;BME280;5974;42.710;27.258;2024-03-23T01:18:00;100375.41;;;-0.03;100.00
12349;BME280;5974;42.710;27.258;2024-03-23T01:20:27;100368.50;;;-0.19;100.00
12349;BME280;5974;42.710;27.258;2024-03-23T01:22:53;100367.75;;;0.02;100.00
12349;BME280;5974;42.710;27.258;2024-03-23T01:25:21;100369.50;;;0.06;100.00
12349;BME280;5974;42.710;27.258;2024-03-23T01:27:47;100352.31;;;-0.04;100.00
12349;BME280;5974;42.710;27.258;2024-03-23T01:30:13;100357.38;;;-0.13;100.00
12349;BME280;5974;42.710;27.258;2024-03-23T01:32:40;100365.22;;;0.13;100.00
12349;BME280;5974;42.710;27.258;2024-03-23T01:35:07;100361.81;;;0.09;100.00
12349;BME280;5974;42.710;27.258;2024-03-23T01:37:33;100359.91;;;-0.22;100.00
12349;BME280;5974;42.710;27.258;2024-03-23T01:40:00;100365.91;;;-0.17;100.00
12349;BME280;5974;42.710;27.258;2024-03-23T01:42:27;100360.00;;;-0.07;100.00
12349;BME280;5974;42.710;27.258;2024-03-23T01:44:54;100367.56;;;-0.28;100.00
12349;BME280;5974;42.710;27.258;2024-03-23T01:47:20;100354.75;;;-0.25;100.00
12349;BME280;5974;42.710;27.258;2024-03-23T01:49:47;100356.44;;;-0.29;100.00
12349;BME280;5974;42.710;27.258;2024-03-23T01:52:12;100358.03;;;-0.41;100.00
12349;BME280;5974;42.710;27.258;2024-03-23T01:54:40;100357.34;;;-0.19;100.00
12349;BME280;5974;42.710;27.258;2024-03-23T01:57:07;100357.34;;;-0.18;100.00
12349;BME280;5974;42.710;27.258;2024-03-23T01:59:36;100361.69;;;-0.06;100.00
12349;BME280;5974;42.710;27.258;2024-03-23T02:02:01;100354.88;;;-0.03;100.00
12349;BME280;5974;42.710;27.258;2024-03-23T02:04:28;100353.91;;;-0.21;100.00
12349;BME280;5974;42.710;27.258;2024-03-23T02:06:54;100356.47;;;-0.18;100.00
12349;BME280;5974;42.710;27.258;2024-03-23T02:09:21;100351.44;;;-0.05;100.00
12349;BME280;5974;42.710;27.258;2024-03-23T02:11:46;100346.94;;;-0.40;100.00
12349;BME280;5974;42.710;27.258;2024-03-23T02:14:13;100339.81;;;-0.75;100.00
12349;BME280;5974;42.710;27.258;2024-03-23T02:16:40;100340.97;;;-0.35;100.00
12349;BME280;5974;42.710;27.258;2024-03-23T02:19:06;100350.50;;;-0.19;100.00
12349;BME280;5974;42.710;27.258;2024-03-23T02:21:32;100347.03;;;-0.25;100.00
12349;BME280;5974;42.710;27.258;2024-03-23T02:24:01;100353.06;;;-0.20;100.00
12349;BME280;5974;42.710;27.258;2024-03-23T02:26:26;100346.25;;;-0.09;100.00
12349;BME280;5974;42.710;27.258;2024-03-23T02:28:53;100350.50;;;-0.17;100.00
12349;BME280;5974;42.710;27.258;2024-03-23T02:31:19;100348.88;;;-0.03;100.00
12349;BME280;5974;42.710;27.258;2024-03-23T02:33:45;100354.88;;;-0.03;100.00
12349;BME280;5974;42.710;27.258;2024-03-23T02:36:11;100352.34;;;0.02;100.00
12349;BME280;5974;42.710;27.258;2024-03-23T02:38:38;100343.75;;;-0.02;100.00
12349;BME280;5974;42.710;27.258;2024-03-23T02:41:05;100345.41;;;-0.08;100.00
12349;BME280;5974;42.710;27.258;2024-03-23T02:43:32;100344.38;;;-0.37;100.00
12349;BME280;5974;42.710;27.258;2024-03-23T02:45:58;100346.22;;;-0.18;100.00
12349;BME280;5974;42.710;27.258;2024-03-23T02:48:24;100347.16;;;-0.04;100.00
12349;BME280;5974;42.710;27.258;2024-03-23T02:50:50;100342.06;;;0.02;100.00
12349;BME280;5974;42.710;27.258;2024-03-23T02:53:17;100344.59;;;0.00;100.00
12349;BME280;5974;42.710;27.258;2024-03-23T02:55:43;100347.97;;;-0.13;100.00
12349;BME280;5974;42.710;27.258;2024-03-23T02:58:11;100347.91;;;-0.20;100.00
12349;BME280;5974;42.710;27.258;2024-03-23T03:00:37;100345.44;;;-0.02;100.00
12349;BME280;5974;42.710;27.258;2024-03-23T03:03:04;100345.47;;;0.04;100.00
12349;BME280;5974;42.710;27.258;2024-03-23T03:05:30;100344.66;;;0.05;100.00
12349;BME280;5974;42.710;27.258;2024-03-23T03:07:56;100346.41;;;0.14;100.00
12349;BME280;5974;42.710;27.258;2024-03-23T03:10:22;100340.38;;;0.09;100.00
12349;BME280;5974;42.710;27.258;2024-03-23T03:12:49;100349.81;;;0.11;100.00
12349;BME280;5974;42.710;27.258;2024-03-23T03:15:16;100336.19;;;0.27;100.00
12349;BME280;5974;42.710;27.258;2024-03-23T03:17:42;100340.38;;;0.09;100.00
12349;BME280;5974;42.710;27.258;2024-03-23T03:20:09;100341.84;;;-0.30;100.00
12349;BME280;5974;42.710;27.258;2024-03-23T03:22:38;100335.88;;;-0.27;100.00
12349;BME280;5974;42.710;27.258;2024-03-23T03:25:05;100342.25;;;-0.90;100.00
12349;BME280;5974;42.710;27.258;2024-03-23T03:27:33;100342.59;;;-0.46;100.00
12349;BME280;5974;42.710;27.258;2024-03-23T03:29:59;100346.81;;;-0.59;100.00
12349;BME280;5974;42.710;27.258;2024-03-23T03:32:29;100346.50;;;-0.90;100.00
12349;BME280;5974;42.710;27.258;2024-03-23T03:34:55;100339.09;;;-0.59;100.00
12349;BME280;5974;42.710;27.258;2024-03-23T03:37:22;100332.97;;;-0.73;100.00
12349;BME280;5974;42.710;27.258;2024-03-23T03:39:47;100344.72;;;-0.97;100.00
12349;BME280;5974;42.710;27.258;2024-03-23T03:42:14;100339.53;;;-1.08;100.00
12349;BME280;5974;42.710;27.258;2024-03-23T03:44:40;100341.56;;;-0.68;100.00
12349;BME280;5974;42.710;27.258;2024-03-23T03:47:07;100350.22;;;-0.57;100.00
12349;BME280;5974;42.710;27.258;2024-03-23T03:49:34;100347.66;;;-0.57;100.00
12349;BME280;5974;42.710;27.258;2024-03-23T03:52:00;100345.03;;;-0.61;100.00
12349;BME280;5974;42.710;27.258;2024-03-23T03:54:27;100345.00;;;-0.69;100.00
12349;BME280;5974;42.710;27.258;2024-03-23T03:56:54;100356.84;;;-0.81;100.00
12349;BME280;5974;42.710;27.258;2024-03-23T03:59:19;100350.72;;;-0.97;100.00
12349;BME280;5974;42.710;27.258;2024-03-23T04:01:46;100355.91;;;-0.91;100.00
12349;BME280;5974;42.710;27.258;2024-03-23T04:04:12;100358.44;;;-0.94;100.00
12349;BME280;5974;42.710;27.258;2024-03-23T04:06:43;100352.63;;;-1.59;100.00
12349;BME280;5974;42.710;27.258;2024-03-23T04:09:09;100355.69;;;-1.14;100.00
12349;BME280;5974;42.710;27.258;2024-03-23T04:11:35;100359.34;;;-0.90;100.00
12349;BME280;5974;42.710;27.258;2024-03-23T04:14:01;100354.09;;;-1.01;100.00
12349;BME280;5974;42.710;27.258;2024-03-23T04:16:28;100359.41;;;-0.84;100.00
12349;BME280;5974;42.710;27.258;2024-03-23T04:18:54;100369.59;;;-0.90;100.00
12349;BME280;5974;42.710;27.258;2024-03-23T04:21:21;100368.00;;;-0.79;100.00
12349;BME280;5974;42.710;27.258;2024-03-23T04:23:49;100363.88;;;-0.61;100.00
12349;BME280;5974;42.710;27.258;2024-03-23T04:26:15;100363.06;;;-0.55;100.00
12349;BME280;5974;42.710;27.258;2024-03-23T04:28:41;100368.28;;;-0.43;100.00
12349;BME280;5974;42.710;27.258;2024-03-23T04:31:08;100365.78;;;-0.34;100.00
12349;BME280;5974;42.710;27.258;2024-03-23T04:33:34;100364.50;;;-0.87;100.00
12349;BME280;5974;42.710;27.258;2024-03-23T04:36:01;100365.66;;;-0.53;100.00
12349;BME280;5974;42.710;27.258;2024-03-23T04:38:26;100369.06;;;-0.55;100.00
12349;BME280;5974;42.710;27.258;2024-03-23T04:40:58;100367.50;;;-0.37;100.00
12349;BME280;5974;42.710;27.258;2024-03-23T04:43:26;100378.78;;;-0.16;100.00
12349;BME280;5974;42.710;27.258;2024-03-23T04:45:53;100374.47;;;-0.15;100.00
12349;BME280;5974;42.710;27.258;2024-03-23T04:48:21;100376.38;;;0.16;100.00
12349;BME280;5974;42.710;27.258;2024-03-23T04:50:48;100370.06;;;-0.36;100.00
12349;BME280;5974;42.710;27.258;2024-03-23T04:53:15;100363.88;;;1.77;100.00
12349;BME280;5974;42.710;27.258;2024-03-23T04:55:42;100368.91;;;4.53;100.00
12349;BME280;5974;42.710;27.258;2024-03-23T04:58:10;100348.06;;;7.44;100.00
12349;BME280;5974;42.710;27.258;2024-03-23T05:00:36;100324.22;;;8.25;100.00
12349;BME280;5974;42.710;27.258;2024-03-23T05:03:03;100339.63;;;9.22;100.00
12349;BME280;5974;42.710;27.258;2024-03-23T05:05:29;100341.09;;;9.57;96.15
12349;BME280;5974;42.710;27.258;2024-03-23T05:07:56;100335.22;;;11.61;85.02
12349;BME280;5974;42.710;27.258;2024-03-23T05:10:22;100328.19;;;12.99;78.73
12349;BME280;5974;42.710;27.258;2024-03-23T05:12:48;100336.00;;;15.21;69.63
12349;BME280;5974;42.710;27.258;2024-03-23T05:15:16;100342.09;;;14.75;63.48
12349;BME280;5974;42.710;27.258;2024-03-23T05:17:42;100336.38;;;16.20;61.85
12349;BME280;5974;42.710;27.258;2024-03-23T05:20:09;100329.97;;;16.52;56.74
12349;BME280;5974;42.710;27.258;2024-03-23T05:22:37;100335.38;;;14.69;59.81
12349;BME280;5974;42.710;27.258;2024-03-23T05:25:04;100331.00;;;15.01;60.95
12349;BME280;5974;42.710;27.258;2024-03-23T05:27:31;100340.28;;;16.71;56.95
12349;BME280;5974;42.710;27.258;2024-03-23T05:29:57;100333.00;;;16.74;54.41
12349;BME280;5974;42.710;27.258;2024-03-23T05:32:25;100331.69;;;13.89;57.61
12349;BME280;5974;42.710;27.258;2024-03-23T05:34:51;100339.00;;;13.12;60.17
12349;BME280;5974;42.710;27.258;2024-03-23T05:37:21;100338.03;;;13.85;58.97
12349;BME280;5974;42.710;27.258;2024-03-23T05:39:47;100336.66;;;13.25;60.09
12349;BME280;5974;42.710;27.258;2024-03-23T05:42:15;100337.81;;;13.19;60.22
12349;BME280;5974;42.710;27.258;2024-03-23T05:44:41;100328.13;;;13.55;59.91
12349;BME280;5974;42.710;27.258;2024-03-23T05:47:09;100330.41;;;13.27;60.06
12349;BME280;5974;42.710;27.258;2024-03-23T05:49:36;100329.69;;;12.86;61.77
12349;BME280;5974;42.710;27.258;2024-03-23T05:52:03;100335.03;;;13.92;60.48
12349;BME280;5974;42.710;27.258;2024-03-23T05:54:29;100328.69;;;15.87;56.74
12349;BME280;5974;42.710;27.258;2024-03-23T05:56:56;100330.38;;;16.89;54.92
12349;BME280;5974;42.710;27.258;2024-03-23T05:59:21;100330.88;;;16.67;54.89
12349;BME280;5974;42.710;27.258;2024-03-23T06:01:48;100333.69;;;15.31;55.06
12349;BME280;5974;42.710;27.258;2024-03-23T06:04:14;100306.53;;;14.35;57.16
12349;BME280;5974;42.710;27.258;2024-03-23T06:06:42;100329.16;;;14.54;56.67
12349;BME280;5974;42.710;27.258;2024-03-23T06:09:08;100328.91;;;14.59;58.85
12349;BME280;5974;42.710;27.258;2024-03-23T06:11:34;100332.28;;;14.45;58.43
12349;BME280;5974;42.710;27.258;2024-03-23T06:14:00;100328.03;;;14.58;57.83
12349;BME280;5974;42.710;27.258;2024-03-23T06:16:27;100326.56;;;15.17;57.40
12349;BME280;5974;42.710;27.258;2024-03-23T06:18:53;100315.94;;;13.89;59.27
12349;BME280;5974;42.710;27.258;2024-03-23T06:21:21;100322.94;;;12.99;61.52
12349;BME280;5974;42.710;27.258;2024-03-23T06:23:51;100318.22;;;13.61;62.45
12349;BME280;5974;42.710;27.258;2024-03-23T06:26:18;100319.28;;;13.22;62.13
12349;BME280;5974;42.710;27.258;2024-03-23T06:28:44;100313.63;;;13.66;62.67
12349;BME280;5974;42.710;27.258;2024-03-23T06:31:11;100313.44;;;13.86;63.67
12349;BME280;5974;42.710;27.258;2024-03-23T06:33:37;100302.63;;;13.40;63.90
12349;BME280;5974;42.710;27.258;2024-03-23T06:36:05;100316.72;;;13.74;64.74
12349;BME280;5974;42.710;27.258;2024-03-23T06:38:31;100317.03;;;14.68;63.18
12349;BME280;5974;42.710;27.258;2024-03-23T06:40:59;100311.81;;;15.44;61.55
12349;BME280;5974;42.710;27.258;2024-03-23T06:43:25;100315.47;;;16.45;59.81
12349;BME280;5974;42.710;27.258;2024-03-23T06:45:55;100307.31;;;18.10;58.01
12349;BME280;5974;42.710;27.258;2024-03-23T06:48:21;100283.38;;;18.99;53.96
12349;BME280;5974;42.710;27.258;2024-03-23T06:50:48;100315.22;;;19.70;52.64
12349;BME280;5974;42.710;27.258;2024-03-23T06:53:15;100313.34;;;21.06;49.92
12349;BME280;5974;42.710;27.258;2024-03-23T06:55:41;100308.16;;;20.83;50.21
12349;BME280;5974;42.710;27.258;2024-03-23T06:58:09;100310.88;;;21.26;48.39
12349;BME280;5974;42.710;27.258;2024-03-23T07:00:35;100312.34;;;21.30;49.39
12349;BME280;5974;42.710;27.258;2024-03-23T07:03:02;100308.88;;;21.07;49.72
12349;BME280;5974;42.710;27.258;2024-03-23T07:05:29;100304.56;;;20.73;48.58
12349;BME280;5974;42.710;27.258;2024-03-23T07:07:56;100302.63;;;20.41;49.44
12349;BME280;5974;42.710;27.258;2024-03-23T07:10:21;100307.31;;;20.93;49.16
12349;BME280;5974;42.710;27.258;2024-03-23T07:12:48;100307.50;;;21.35;49.05
12349;BME280;5974;42.710;27.258;2024-03-23T07:15:15;100302.91;;;22.91;46.22
12349;BME280;5974;42.710;27.258;2024-03-23T07:17:42;100303.09;;;23.18;44.70
12349;BME280;5974;42.710;27.258;2024-03-23T07:20:09;100299.16;;;22.43;46.54
12349;BME280;5974;42.710;27.258;2024-03-23T07:22:36;100303.78;;;21.58;46.75
12349;BME280;5974;42.710;27.258;2024-03-23T07:25:02;100302.16;;;21.98;45.53
12349;BME280;5974;42.710;27.258;2024-03-23T07:27:29;100306.50;;;20.60;48.55
12349;BME280;5974;42.710;27.258;2024-03-23T07:29:55;100293.19;;;21.36;46.94
12349;BME280;5974;42.710;27.258;2024-03-23T07:32:23;100287.88;;;21.36;48.19
12349;BME280;5974;42.710;27.258;2024-03-23T07:34:49;100274.59;;;22.09;45.54
12349;BME280;5974;42.710;27.258;2024-03-23T07:37:15;100294.06;;;22.91;44.88
12349;BME280;5974;42.710;27.258;2024-03-23T07:39:41;100286.63;;;19.15;49.63
12349;BME280;5974;42.710;27.258;2024-03-23T07:42:08;100281.06;;;16.47;55.04
12349;BME280;5974;42.710;27.258;2024-03-23T07:44:33;100277.28;;;16.51;55.38
12349;BME280;5974;42.710;27.258;2024-03-23T07:47:01;100288.19;;;15.13;57.81
12349;BME280;5974;42.710;27.258;2024-03-23T07:49:28;100286.72;;;13.43;61.78
12349;BME280;5974;42.710;27.258;2024-03-23T07:51:55;100278.59;;;14.32;63.05
12349;BME280;5974;42.710;27.258;2024-03-23T07:54:21;100280.03;;;14.05;61.27
12349;BME280;5974;42.710;27.258;2024-03-23T07:56:48;100273.84;;;13.20;64.64
12349;BME280;5974;42.710;27.258;2024-03-23T07:59:13;100274.78;;;13.53;65.66
12349;BME280;5974;42.710;27.258;2024-03-23T08:01:40;100273.66;;;13.59;65.85
12349;BME280;5974;42.710;27.258;2024-03-23T08:04:06;100275.50;;;13.40;63.90
12349;BME280;5974;42.710;27.258;2024-03-23T08:06:34;100271.63;;;13.81;66.48
12349;BME280;5974;42.710;27.258;2024-03-23T08:09:00;100271.03;;;13.76;65.49
12349;BME280;5974;42.710;27.258;2024-03-23T08:11:27;100261.59;;;14.22;65.50
12349;BME280;5974;42.710;27.258;2024-03-23T08:13:54;100269.69;;;14.02;64.56
12349;BME280;5974;42.710;27.258;2024-03-23T08:16:22;100264.09;;;14.08;65.91
12349;BME280;5974;42.710;27.258;2024-03-23T08:18:47;100264.84;;;14.27;66.58
12349;BME280;5974;42.710;27.258;2024-03-23T08:21:14;100268.66;;;14.54;65.40
12349;BME280;5974;42.710;27.258;2024-03-23T08:23:41;100260.03;;;15.13;63.68
12349;BME280;5974;42.710;27.258;2024-03-23T08:26:12;100245.13;;;14.83;63.94
12349;BME280;5974;42.710;27.258;2024-03-23T08:28:39;100265.56;;;14.46;65.02
12349;BME280;5974;42.710;27.258;2024-03-23T08:31:07;100261.44;;;14.58;66.58
12349;BME280;5974;42.710;27.258;2024-03-23T08:33:34;100264.47;;;15.13;64.63
12349;BME280;5974;42.710;27.258;2024-03-23T08:36:02;100260.16;;;14.65;64.24
12349;BME280;5974;42.710;27.258;2024-03-23T08:38:28;100260.50;;;14.75;64.56
12349;BME280;5974;42.710;27.258;2024-03-23T08:40:59;100253.94;;;15.58;64.36
12349;BME280;5974;42.710;27.258;2024-03-23T08:43:25;100251.91;;;15.32;65.00
12349;BME280;5974;42.710;27.258;2024-03-23T08:45:52;100251.63;;;15.23;63.72
12349;BME280;5974;42.710;27.258;2024-03-23T08:48:19;100243.81;;;15.21;63.73
12349;BME280;5974;42.710;27.258;2024-03-23T08:50:46;100243.25;;;14.69;65.21
12349;BME280;5974;42.710;27.258;2024-03-23T08:53:12;100248.09;;;15.53;65.55
12349;BME280;5974;42.710;27.258;2024-03-23T08:55:38;100217.06;;;16.01;63.65
12349;BME280;5974;42.710;27.258;2024-03-23T08:58:06;100224.13;;;15.86;63.76
12349;BME280;5974;42.710;27.258;2024-03-23T09:00:35;100215.28;;;16.15;63.14
12349;BME280;5974;42.710;27.258;2024-03-23T09:03:00;100221.13;;;15.92;62.44
12349;BME280;5974;42.710;27.258;2024-03-23T09:05:28;100220.59;;;15.57;61.70
12349;BME280;5974;42.710;27.258;2024-03-23T09:07:56;100214.59;;;15.69;62.92
12349;BME280;5974;42.710;27.258;2024-03-23T09:10:22;100207.72;;;16.38;62.59
12349;BME280;5974;42.710;27.258;2024-03-23T09:12:48;100208.31;;;16.28;60.48
12349;BME280;5974;42.710;27.258;2024-03-23T09:15:16;100204.44;;;16.34;61.24
12349;BME280;5974;42.710;27.258;2024-03-23T09:17:42;100197.41;;;15.92;61.76
12349;BME280;5974;42.710;27.258;2024-03-23T09:20:09;100193.97;;;16.18;61.37
12349;BME280;5974;42.710;27.258;2024-03-23T09:22:35;100202.19;;;16.42;60.00
12349;BME280;5974;42.710;27.258;2024-03-23T09:25:02;100194.81;;;16.47;59.35
12349;BME280;5974;42.710;27.258;2024-03-23T09:27:30;100184.06;;;16.50;59.46
12349;BME280;5974;42.710;27.258;2024-03-23T09:29:57;100185.09;;;16.34;56.29
12349;BME280;5974;42.710;27.258;2024-03-23T09:32:24;100188.97;;;16.42;56.64
12349;BME280;5974;42.710;27.258;2024-03-23T09:34:51;100183.59;;;16.85;58.31
12349;BME280;5974;42.710;27.258;2024-03-23T09:37:16;100188.09;;;16.97;56.87
12349;BME280;5974;42.710;27.258;2024-03-23T09:39:43;100179.72;;;16.90;57.49
12349;BME280;5974;42.710;27.258;2024-03-23T09:42:09;100177.41;;;16.98;56.22
12349;BME280;5974;42.710;27.258;2024-03-23T09:44:36;100175.91;;;16.67;57.25
12349;BME280;5974;42.710;27.258;2024-03-23T09:47:02;100172.75;;;16.34;53.89
12349;BME280;5974;42.710;27.258;2024-03-23T09:49:30;100167.66;;;16.86;54.96
12349;BME280;5974;42.710;27.258;2024-03-23T09:51:57;100164.09;;;17.00;55.45
12349;BME280;5974;42.710;27.258;2024-03-23T09:54:24;100159.53;;;16.89;54.60
12349;BME280;5974;42.710;27.258;2024-03-23T09:56:50;100160.00;;;16.14;56.22
12349;BME280;5974;42.710;27.258;2024-03-23T09:59:17;100158.66;;;16.07;56.17
12349;BME280;5974;42.710;27.258;2024-03-23T10:01:43;100156.00;;;16.35;56.08
12349;BME280;5974;42.710;27.258;2024-03-23T10:04:09;100150.84;;;17.39;56.53
12349;BME280;5974;42.710;27.258;2024-03-23T10:06:37;100146.63;;;17.24;53.77
12349;BME280;5974;42.710;27.258;2024-03-23T10:09:16;100140.25;;;16.74;54.84
12349;BME280;5974;42.710;27.258;2024-03-23T10:11:42;100135.75;;;17.54;55.34
12349;BME280;5974;42.710;27.258;2024-03-23T10:14:28;100129.53;;;17.80;56.35
12349;BME280;5974;42.710;27.258;2024-03-23T10:17:11;100119.16;;;17.52;56.72
12349;BME280;5974;42.710;27.258;2024-03-23T10:19:39;100120.19;;;17.24;53.87
12349;BME280;5974;42.710;27.258;2024-03-23T10:22:08;100115.97;;;17.72;56.75
12349;BME280;5974;42.710;27.258;2024-03-23T10:24:34;100111.34;;;17.63;55.80
12349;BME280;5974;42.710;27.258;2024-03-23T10:27:01;100108.78;;;17.86;55.19
12349;BME280;5974;42.710;27.258;2024-03-23T10:29:27;100104.88;;;17.79;53.74
12349;BME280;5974;42.710;27.258;2024-03-23T10:31:56;100095.47;;;17.38;55.30
12349;BME280;5974;42.710;27.258;2024-03-23T10:34:32;100091.38;;;18.08;55.76
12349;BME280;5974;42.710;27.258;2024-03-23T10:37:01;100096.31;;;18.49;53.84
12349;BME280;5974;42.710;27.258;2024-03-23T10:39:30;100085.47;;;18.04;54.52
12349;BME280;5974;42.710;27.258;2024-03-23T10:42:00;100086.31;;;18.05;53.63
12349;BME280;5974;42.710;27.258;2024-03-23T10:44:28;100073.50;;;18.11;55.34
12349;BME280;5974;42.710;27.258;2024-03-23T10:46:56;100074.75;;;18.06;54.56
12349;BME280;5974;42.710;27.258;2024-03-23T10:49:25;100063.47;;;18.27;53.08
12349;BME280;5974;42.710;27.258;2024-03-23T10:51:55;100065.59;;;18.22;54.46
12349;BME280;5974;42.710;27.258;2024-03-23T10:54:22;100059.63;;;17.33;53.69
12349;BME280;5974;42.710;27.258;2024-03-23T10:56:57;100051.25;;;17.77;54.38
12349;BME280;5974;42.710;27.258;2024-03-23T10:59:23;100047.19;;;17.84;53.79
12349;BME280;5974;42.710;27.258;2024-03-23T11:01:54;100052.34;;;17.99;54.72
12349;BME280;5974;42.710;27.258;2024-03-23T11:04:31;100045.06;;;18.02;52.95
12349;BME280;5974;42.710;27.258;2024-03-23T11:06:58;100035.63;;;17.62;54.97
12349;BME280;5974;42.710;27.258;2024-03-23T11:09:40;100043.25;;;17.28;53.72
12349;BME280;5974;42.710;27.258;2024-03-23T11:12:27;100035.63;;;17.98;55.04
12349;BME280;5974;42.710;27.258;2024-03-23T11:14:54;100036.72;;;17.96;52.41
12349;BME280;5974;42.710;27.258;2024-03-23T11:17:22;100033.41;;;18.28;54.49
12349;BME280;5974;42.710;27.258;2024-03-23T11:19:58;100026.81;;;17.74;51.89
12349;BME280;5974;42.710;27.258;2024-03-23T11:22:41;100012.50;;;17.89;52.41
12349;BME280;5974;42.710;27.258;2024-03-23T11:25:18;100014.47;;;17.49;51.69
12349;BME280;5974;42.710;27.258;2024-03-23T11:27:48;100010.88;;;17.99;52.37
12349;BME280;5974;42.710;27.258;2024-03-23T11:30:18;100009.84;;;18.13;51.41
12349;BME280;5974;42.710;27.258;2024-03-23T11:32:46;100000.09;;;17.53;52.33
12349;BME280;5974;42.710;27.258;2024-03-23T11:35:25;99995.97;;;17.49;52.49
12349;BME280;5974;42.710;27.258;2024-03-23T11:38:06;99994.69;;;17.29;53.31
12349;BME280;5974;42.710;27.258;2024-03-23T11:40:32;99984.94;;;17.68;52.98
12349;BME280;5974;42.710;27.258;2024-03-23T11:43:01;99983.97;;;16.82;53.49
12349;BME280;5974;42.710;27.258;2024-03-23T11:45:28;99980.56;;;17.05;53.62
12349;BME280;5974;42.710;27.258;2024-03-23T11:48:05;99978.53;;;17.59;54.41
12349;BME280;5974;42.710;27.258;2024-03-23T11:50:31;99971.38;;;17.72;54.30
12349;BME280;5974;42.710;27.258;2024-03-23T11:53:14;99965.34;;;18.41;53.53
12349;BME280;5974;42.710;27.258;2024-03-23T11:55:46;99972.03;;;18.58;52.38
12349;BME280;5974;42.710;27.258;2024-03-23T11:58:15;99965.53;;;18.51;54.23
12349;BME280;5974;42.710;27.258;2024-03-23T12:00:41;99958.00;;;18.10;53.19
12349;BME280;5974;42.710;27.258;2024-03-23T12:03:08;99951.03;;;18.44;53.75
12349;BME280;5974;42.710;27.258;2024-03-23T12:05:36;99947.50;;;18.32;53.44
12349;BME280;5974;42.710;27.258;2024-03-23T12:08:23;99950.28;;;18.66;53.47
12349;BME280;5974;42.710;27.258;2024-03-23T12:10:51;99948.19;;;18.58;52.18
12349;BME280;5974;42.710;27.258;2024-03-23T12:13:20;99944.16;;;17.83;52.20
12349;BME280;5974;42.710;27.258;2024-03-23T12:15:50;99932.38;;;18.11;53.44
12349;BME280;5974;42.710;27.258;2024-03-23T12:18:17;99907.66;;;18.80;53.44
12349;BME280;5974;42.710;27.258;2024-03-23T12:20:43;99931.25;;;18.72;53.42
12349;BME280;5974;42.710;27.258;2024-03-23T12:23:12;99922.72;;;19.02;51.85
12349;BME280;5974;42.710;27.258;2024-03-23T12:25:38;99919.72;;;18.38;51.92
12349;BME280;5974;42.710;27.258;2024-03-23T12:28:06;99898.13;;;17.85;52.20
12349;BME280;5974;42.710;27.258;2024-03-23T12:30:35;99912.44;;;17.59;52.42
12349;BME280;5974;42.710;27.258;2024-03-23T12:33:02;99903.38;;;17.74;52.36
12349;BME280;5974;42.710;27.258;2024-03-23T12:35:28;99901.44;;;18.00;52.97
12349;BME280;5974;42.710;27.258;2024-03-23T12:37:55;99904.81;;;17.55;53.18
12349;BME280;5974;42.710;27.258;2024-03-23T12:40:21;99896.66;;;17.45;52.76
12349;BME280;5974;42.710;27.258;2024-03-23T12:42:48;99892.72;;;18.22;53.37
12349;BME280;5974;42.710;27.258;2024-03-23T12:45:13;99889.06;;;17.77;51.91
12349;BME280;5974;42.710;27.258;2024-03-23T12:47:42;99883.13;;;17.50;51.65
12349;BME280;5974;42.710;27.258;2024-03-23T12:50:08;99877.53;;;17.42;53.47
12349;BME280;5974;42.710;27.258;2024-03-23T12:52:35;99879.88;;;17.94;53.79
12349;BME280;5974;42.710;27.258;2024-03-23T12:55:01;99875.84;;;17.77;52.33
12349;BME280;5974;42.710;27.258;2024-03-23T12:57:27;99879.69;;;18.08;53.25
12349;BME280;5974;42.710;27.258;2024-03-23T12:59:53;99869.56;;;18.02;52.70
12349;BME280;5974;42.710;27.258;2024-03-23T13:02:20;99871.88;;;17.71;52.27
12349;BME280;5974;42.710;27.258;2024-03-23T13:04:49;99868.41;;;17.82;52.08
12349;BME280;5974;42.710;27.258;2024-03-23T13:07:16;99867.81;;;17.42;51.96
12349;BME280;5974;42.710;27.258;2024-03-23T13:09:42;99864.03;;;17.33;50.46
12349;BME280;5974;42.710;27.258;2024-03-23T13:12:09;99857.06;;;17.32;52.38
12349;BME280;5974;42.710;27.258;2024-03-23T13:14:35;99857.19;;;17.31;49.41
12349;BME280;5974;42.710;27.258;2024-03-23T13:17:02;99862.03;;;17.37;51.94
12349;BME280;5974;42.710;27.258;2024-03-23T13:19:28;99855.28;;;17.33;51.90
12349;BME280;5974;42.710;27.258;2024-03-23T13:21:57;99846.56;;;17.91;51.09
12349;BME280;5974;42.710;27.258;2024-03-23T13:24:24;99860.34;;;17.36;50.50
12349;BME280;5974;42.710;27.258;2024-03-23T13:26:51;99846.66;;;17.55;50.70
12349;BME280;5974;42.710;27.258;2024-03-23T13:29:17;99857.97;;;17.92;50.44
12349;BME280;5974;42.710;27.258;2024-03-23T13:31:45;99849.66;;;18.31;50.04
12349;BME280;5974;42.710;27.258;2024-03-23T13:34:11;99844.47;;;18.75;49.04
12349;BME280;5974;42.710;27.258;2024-03-23T13:36:38;99841.03;;;18.40;48.31
12349;BME280;5974;42.710;27.258;2024-03-23T13:39:05;99840.53;;;18.24;48.33
12349;BME280;5974;42.710;27.258;2024-03-23T13:41:37;99837.34;;;18.08;48.22
12349;BME280;5974;42.710;27.258;2024-03-23T13:44:03;99841.06;;;17.70;49.47